Авиационная погода в аэропорту Семей

СКИДКИ НА СМАРТФОНЫ!

Регион: 
Погода METAR: 
UASS 190300Z 30003MPS 9999 BKN023 11/07 Q1016 NOSIG RMK QFE743/0991
Время наблюдения
2022-08-19T03:00:00Z
Температура C
11.0
Точка росы
7.0
Направление ветра
300
Скорость ветра (узлы)
6
Метео видимость
6.21
Облачность
BKN
Нижняя граница облачности (футы)
2300
Явления погоды
Условия полета
MVFR
Аэропорт подробнее: 
BKN – значительная (рассеянная, разорванная) облачность;

Скидки на навигаторы!